sensor_id;sensor_type;location;lat;lon;timestamp;pressure;altitude;pressure_sealevel;temperature;humidity
47883;BME280;37739;50.350;7.578;2022-12-07T00:01:33;99898.81;;;3.88;91.07
47883;BME280;37739;50.350;7.578;2022-12-07T00:04:01;99906.44;;;3.88;91.40
47883;BME280;37739;50.350;7.578;2022-12-07T00:06:34;99899.63;;;3.87;91.88
47883;BME280;37739;50.350;7.578;2022-12-07T00:09:04;99902.06;;;3.85;92.24
47883;BME280;37739;50.350;7.578;2022-12-07T00:11:30;99901.94;;;3.84;91.87
47883;BME280;37739;50.350;7.578;2022-12-07T00:13:58;99892.56;;;3.83;92.29
47883;BME280;37739;50.350;7.578;2022-12-07T00:16:28;99891.81;;;3.84;92.04
47883;BME280;37739;50.350;7.578;2022-12-07T00:18:57;99884.94;;;3.83;92.23
47883;BME280;37739;50.350;7.578;2022-12-07T00:21:28;99886.72;;;3.84;92.48
47883;BME280;37739;50.350;7.578;2022-12-07T00:23:57;99883.50;;;3.86;92.62
47883;BME280;37739;50.350;7.578;2022-12-07T00:26:30;99879.97;;;3.84;92.33
47883;BME280;37739;50.350;7.578;2022-12-07T00:28:59;99869.06;;;3.85;92.69
47883;BME280;37739;50.350;7.578;2022-12-07T00:31:29;99875.78;;;3.85;92.28
47883;BME280;37739;50.350;7.578;2022-12-07T00:33:57;99872.56;;;3.87;92.47
47883;BME280;37739;50.350;7.578;2022-12-07T00:36:25;99873.94;;;3.82;92.63
47883;BME280;37739;50.350;7.578;2022-12-07T00:38:51;99870.53;;;3.82;92.52
47883;BME280;37739;50.350;7.578;2022-12-07T00:41:21;99865.63;;;3.85;92.73
47883;BME280;37739;50.350;7.578;2022-12-07T00:43:47;99868.09;;;3.83;92.34
47883;BME280;37739;50.350;7.578;2022-12-07T00:46:16;99864.66;;;3.83;92.89
47883;BME280;37739;50.350;7.578;2022-12-07T00:48:44;99862.31;;;3.86;93.31
47883;BME280;37739;50.350;7.578;2022-12-07T00:51:11;99861.34;;;3.84;92.98
47883;BME280;37739;50.350;7.578;2022-12-07T00:53:38;99867.41;;;3.86;93.67
47883;BME280;37739;50.350;7.578;2022-12-07T00:56:16;99858.81;;;3.84;93.47
47883;BME280;37739;50.350;7.578;2022-12-07T00:58:41;99867.41;;;3.86;93.53
47883;BME280;37739;50.350;7.578;2022-12-07T01:01:08;99853.84;;;3.85;93.53
47883;BME280;37739;50.350;7.578;2022-12-07T01:03:37;99860.53;;;3.85;93.80
47883;BME280;37739;50.350;7.578;2022-12-07T01:06:05;99859.56;;;3.83;93.13
47883;BME280;37739;50.350;7.578;2022-12-07T01:08:31;99857.94;;;3.83;93.68
47883;BME280;37739;50.350;7.578;2022-12-07T01:11:19;99857.94;;;3.83;93.18
47883;BME280;37739;50.350;7.578;2022-12-07T01:13:52;99848.66;;;3.84;93.44
47883;BME280;37739;50.350;7.578;2022-12-07T01:16:19;99853.84;;;3.85;93.39
47883;BME280;37739;50.350;7.578;2022-12-07T01:18:49;99858.13;;;3.86;92.99
47883;BME280;37739;50.350;7.578;2022-12-07T01:21:20;99848.88;;;3.87;93.11
47883;BME280;37739;50.350;7.578;2022-12-07T01:23:47;99841.91;;;3.84;92.75
47883;BME280;37739;50.350;7.578;2022-12-07T01:26:14;99855.97;;;3.79;92.63
47883;BME280;37739;50.350;7.578;2022-12-07T01:28:40;99848.84;;;3.73;93.32
47883;BME280;37739;50.350;7.578;2022-12-07T01:31:08;99862.50;;;3.76;93.19
47883;BME280;37739;50.350;7.578;2022-12-07T01:33:37;99855.28;;;3.82;92.78
47883;BME280;37739;50.350;7.578;2022-12-07T01:36:19;99849.41;;;3.83;93.22
47883;BME280;37739;50.350;7.578;2022-12-07T01:38:46;99847.09;;;3.86;92.54
47883;BME280;37739;50.350;7.578;2022-12-07T01:41:13;99842.13;;;3.87;92.95
47883;BME280;37739;50.350;7.578;2022-12-07T01:47:00;99840.75;;;3.79;92.86
47883;BME280;37739;50.350;7.578;2022-12-07T01:49:31;99842.78;;;3.85;93.07
47883;BME280;37739;50.350;7.578;2022-12-07T01:52:07;99844.44;;;3.84;93.05
47883;BME280;37739;50.350;7.578;2022-12-07T01:54:35;99837.63;;;3.83;92.36
47883;BME280;37739;50.350;7.578;2022-12-07T01:57:02;99836.72;;;3.83;92.13
47883;BME280;37739;50.350;7.578;2022-12-07T01:59:28;99840.94;;;3.82;92.61
47883;BME280;37739;50.350;7.578;2022-12-07T02:01:54;99836.94;;;3.86;92.37
47883;BME280;37739;50.350;7.578;2022-12-07T02:04:23;99830.88;;;3.84;92.54
47883;BME280;37739;50.350;7.578;2022-12-07T02:06:51;99826.91;;;3.87;92.50
47883;BME280;37739;50.350;7.578;2022-12-07T02:09:22;99832.56;;;3.83;92.19
47883;BME280;37739;50.350;7.578;2022-12-07T02:11:47;99826.03;;;3.87;92.38
47883;BME280;37739;50.350;7.578;2022-12-07T02:14:13;99822.59;;;3.86;92.31
47883;BME280;37739;50.350;7.578;2022-12-07T02:28:12;99817.22;;;3.82;91.93
47883;BME280;37739;50.350;7.578;2022-12-07T02:30:48;99820.53;;;3.81;92.23
47883;BME280;37739;50.350;7.578;2022-12-07T02:33:24;99814.59;;;3.80;92.59
47883;BME280;37739;50.350;7.578;2022-12-07T02:36:01;99819.66;;;3.80;92.03
47883;BME280;37739;50.350;7.578;2022-12-07T02:38:31;99820.84;;;3.85;92.37
47883;BME280;37739;50.350;7.578;2022-12-07T02:43:34;99819.75;;;3.82;91.75
47883;BME280;37739;50.350;7.578;2022-12-07T02:46:08;99817.91;;;3.79;92.34
47883;BME280;37739;50.350;7.578;2022-12-07T02:48:35;99816.25;;;3.80;91.88
47883;BME280;37739;50.350;7.578;2022-12-07T02:51:08;99815.94;;;3.75;92.18
47883;BME280;37739;50.350;7.578;2022-12-07T02:53:39;99814.47;;;3.79;92.43
47883;BME280;37739;50.350;7.578;2022-12-07T02:56:37;99811.94;;;3.79;91.94
47883;BME280;37739;50.350;7.578;2022-12-07T03:10:24;99805.13;;;3.78;92.35
47883;BME280;37739;50.350;7.578;2022-12-07T03:18:31;99799.47;;;3.82;92.00
47883;BME280;37739;50.350;7.578;2022-12-07T03:21:03;99799.16;;;3.77;91.92
47883;BME280;37739;50.350;7.578;2022-12-07T03:23:34;99793.31;;;3.78;92.22
47883;BME280;37739;50.350;7.578;2022-12-07T03:26:03;99800.06;;;3.78;92.14
47883;BME280;37739;50.350;7.578;2022-12-07T03:28:33;99805.41;;;3.82;92.02
47883;BME280;37739;50.350;7.578;2022-12-07T03:31:04;99797.91;;;3.84;92.00
47883;BME280;37739;50.350;7.578;2022-12-07T03:33:40;99799.63;;;3.85;91.88
47883;BME280;37739;50.350;7.578;2022-12-07T03:36:31;99795.47;;;3.85;91.89
47883;BME280;37739;50.350;7.578;2022-12-07T03:41:31;99799.25;;;3.79;91.73
47883;BME280;37739;50.350;7.578;2022-12-07T03:44:00;99801.91;;;3.80;92.05
47883;BME280;37739;50.350;7.578;2022-12-07T03:49:50;99798.88;;;3.86;91.78
47883;BME280;37739;50.350;7.578;2022-12-07T03:53:11;99796.13;;;3.83;91.85
47883;BME280;37739;50.350;7.578;2022-12-07T03:55:39;99788.50;;;3.83;91.66
47883;BME280;37739;50.350;7.578;2022-12-07T03:58:11;99787.06;;;3.86;91.29
47883;BME280;37739;50.350;7.578;2022-12-07T04:00:38;99781.88;;;3.85;91.92
47883;BME280;37739;50.350;7.578;2022-12-07T04:03:03;99779.44;;;3.86;91.71
47883;BME280;37739;50.350;7.578;2022-12-07T04:05:33;99781.00;;;3.84;91.68
47883;BME280;37739;50.350;7.578;2022-12-07T04:08:00;99774.97;;;3.82;91.61
47883;BME280;37739;50.350;7.578;2022-12-07T04:10:28;99779.84;;;3.79;91.55
47883;BME280;37739;50.350;7.578;2022-12-07T04:12:53;99782.28;;;3.78;91.88
47883;BME280;37739;50.350;7.578;2022-12-07T04:15:19;99782.28;;;3.78;91.27
47883;BME280;37739;50.350;7.578;2022-12-07T04:17:49;99789.09;;;3.79;91.27
47883;BME280;37739;50.350;7.578;2022-12-07T04:20:14;99789.00;;;3.77;92.08
47883;BME280;37739;50.350;7.578;2022-12-07T04:22:39;99787.66;;;3.82;91.66
47883;BME280;37739;50.350;7.578;2022-12-07T04:25:05;99786.78;;;3.82;91.64
47883;BME280;37739;50.350;7.578;2022-12-07T04:27:33;99780.91;;;3.83;91.66
47883;BME280;37739;50.350;7.578;2022-12-07T04:29:59;99787.47;;;3.79;92.11
47883;BME280;37739;50.350;7.578;2022-12-07T04:32:27;99777.38;;;3.81;91.54
47883;BME280;37739;50.350;7.578;2022-12-07T04:34:52;99779.16;;;3.82;91.71
47883;BME280;37739;50.350;7.578;2022-12-07T04:37:17;99777.81;;;3.87;92.09
47883;BME280;37739;50.350;7.578;2022-12-07T04:39:47;99784.34;;;3.83;91.60
47883;BME280;37739;50.350;7.578;2022-12-07T04:42:15;99785.81;;;3.80;92.20
47883;BME280;37739;50.350;7.578;2022-12-07T04:44:41;99788.44;;;3.81;92.57
47883;BME280;37739;50.350;7.578;2022-12-07T04:47:12;99784.03;;;3.79;92.09
47883;BME280;37739;50.350;7.578;2022-12-07T04:49:39;99780.50;;;3.77;92.50
47883;BME280;37739;50.350;7.578;2022-12-07T04:52:05;99776.31;;;3.77;93.28
47883;BME280;37739;50.350;7.578;2022-12-07T04:54:30;99779.16;;;3.82;93.08
47883;BME280;37739;50.350;7.578;2022-12-07T04:57:00;99775.66;;;3.80;92.60
47883;BME280;37739;50.350;7.578;2022-12-07T04:59:25;99774.97;;;3.82;92.96
47883;BME280;37739;50.350;7.578;2022-12-07T05:01:50;99775.34;;;3.75;93.12
47883;BME280;37739;50.350;7.578;2022-12-07T05:04:16;99778.56;;;3.72;93.29
47883;BME280;37739;50.350;7.578;2022-12-07T05:06:42;99786.88;;;3.70;92.93
47883;BME280;37739;50.350;7.578;2022-12-07T05:09:10;99776.91;;;3.73;94.04
47883;BME280;37739;50.350;7.578;2022-12-07T05:11:38;99782.88;;;3.73;93.32
47883;BME280;37739;50.350;7.578;2022-12-07T05:14:06;99780.34;;;3.73;93.41
47883;BME280;37739;50.350;7.578;2022-12-07T05:16:32;99787.06;;;3.73;93.47
47883;BME280;37739;50.350;7.578;2022-12-07T05:19:02;99782.09;;;3.74;93.67
47883;BME280;37739;50.350;7.578;2022-12-07T05:21:27;99790.56;;;3.75;94.25
47883;BME280;37739;50.350;7.578;2022-12-07T05:23:55;99791.63;;;3.79;93.74
47883;BME280;37739;50.350;7.578;2022-12-07T05:26:22;99790.78;;;3.78;93.51
47883;BME280;37739;50.350;7.578;2022-12-07T05:28:52;99794.06;;;3.77;93.63
47883;BME280;37739;50.350;7.578;2022-12-07T05:31:18;99790.88;;;3.80;93.81
47883;BME280;37739;50.350;7.578;2022-12-07T05:33:43;99797.63;;;3.79;93.90
47883;BME280;37739;50.350;7.578;2022-12-07T05:36:08;99799.16;;;3.77;94.05
47883;BME280;37739;50.350;7.578;2022-12-07T05:38:36;99789.53;;;3.71;93.74
47883;BME280;37739;50.350;7.578;2022-12-07T05:41:03;99797.13;;;3.71;94.76
47883;BME280;37739;50.350;7.578;2022-12-07T05:43:31;99792.34;;;3.76;94.79
47883;BME280;37739;50.350;7.578;2022-12-07T05:46:01;99787.53;;;3.81;94.67
47883;BME280;37739;50.350;7.578;2022-12-07T05:48:26;99789.31;;;3.82;94.54
47883;BME280;37739;50.350;7.578;2022-12-07T05:50:54;99784.81;;;3.78;94.41
47883;BME280;37739;50.350;7.578;2022-12-07T05:53:22;99786.56;;;3.79;94.69
47883;BME280;37739;50.350;7.578;2022-12-07T05:55:49;99785.00;;;3.81;94.18
47883;BME280;37739;50.350;7.578;2022-12-07T05:58:15;99789.50;;;3.85;94.39
47883;BME280;37739;50.350;7.578;2022-12-07T06:01:01;99787.66;;;3.82;94.10
47883;BME280;37739;50.350;7.578;2022-12-07T06:03:26;99794.38;;;3.82;94.29
47883;BME280;37739;50.350;7.578;2022-12-07T06:05:52;99791.84;;;3.82;94.10
47883;BME280;37739;50.350;7.578;2022-12-07T06:08:17;99781.59;;;3.80;94.46
47883;BME280;37739;50.350;7.578;2022-12-07T06:10:46;99787.47;;;3.79;94.63
47883;BME280;37739;50.350;7.578;2022-12-07T06:13:35;99792.22;;;3.74;94.69
47883;BME280;37739;50.350;7.578;2022-12-07T06:16:05;99791.47;;;3.76;94.69
47883;BME280;37739;50.350;7.578;2022-12-07T06:18:33;99784.81;;;3.78;94.65
47883;BME280;37739;50.350;7.578;2022-12-07T06:20:59;99788.34;;;3.80;94.40
47883;BME280;37739;50.350;7.578;2022-12-07T06:23:27;99798.66;;;3.83;94.49
47883;BME280;37739;50.350;7.578;2022-12-07T06:25:52;99790.28;;;3.84;94.93
47883;BME280;37739;50.350;7.578;2022-12-07T06:28:17;99792.03;;;3.85;94.66
47883;BME280;37739;50.350;7.578;2022-12-07T06:30:47;99792.13;;;3.86;95.03
47883;BME280;37739;50.350;7.578;2022-12-07T06:33:12;99792.13;;;3.86;95.26
47883;BME280;37739;50.350;7.578;2022-12-07T06:35:38;99795.94;;;3.93;93.94
47883;BME280;37739;50.350;7.578;2022-12-07T06:38:08;99797.41;;;3.89;94.29
47883;BME280;37739;50.350;7.578;2022-12-07T06:40:33;99793.19;;;3.90;94.81
47883;BME280;37739;50.350;7.578;2022-12-07T06:43:01;99791.47;;;3.89;95.08
47883;BME280;37739;50.350;7.578;2022-12-07T06:45:26;99798.50;;;3.93;94.83
47883;BME280;37739;50.350;7.578;2022-12-07T06:47:52;99796.72;;;3.92;94.67
47883;BME280;37739;50.350;7.578;2022-12-07T06:50:17;99786.47;;;3.90;94.32
47883;BME280;37739;50.350;7.578;2022-12-07T06:52:46;99788.94;;;3.89;94.97
47883;BME280;37739;50.350;7.578;2022-12-07T06:55:16;99798.97;;;3.87;94.29
47883;BME280;37739;50.350;7.578;2022-12-07T06:57:42;99790.66;;;3.90;94.63
47883;BME280;37739;50.350;7.578;2022-12-07T07:00:10;99811.06;;;3.91;94.67
47883;BME280;37739;50.350;7.578;2022-12-07T07:02:35;99799.47;;;3.95;94.79
47883;BME280;37739;50.350;7.578;2022-12-07T07:05:01;99806.38;;;3.98;94.52
47883;BME280;37739;50.350;7.578;2022-12-07T07:07:29;99802.00;;;3.95;94.55
47883;BME280;37739;50.350;7.578;2022-12-07T07:09:57;99799.25;;;3.92;94.55
47883;BME280;37739;50.350;7.578;2022-12-07T07:12:22;99803.47;;;3.91;94.49
47883;BME280;37739;50.350;7.578;2022-12-07T07:14:50;99813.72;;;3.93;94.42
47883;BME280;37739;50.350;7.578;2022-12-07T07:17:15;99813.03;;;3.96;94.63
47883;BME280;37739;50.350;7.578;2022-12-07T07:19:40;99813.13;;;3.97;94.05
47883;BME280;37739;50.350;7.578;2022-12-07T07:22:06;99819.06;;;3.98;94.51
47883;BME280;37739;50.350;7.578;2022-12-07T07:24:31;99811.56;;;3.99;94.25
47883;BME280;37739;50.350;7.578;2022-12-07T07:26:56;99818.31;;;3.99;94.03
47883;BME280;37739;50.350;7.578;2022-12-07T07:29:22;99821.59;;;3.98;94.30
47883;BME280;37739;50.350;7.578;2022-12-07T07:31:47;99817.34;;;3.97;94.46
47883;BME280;37739;50.350;7.578;2022-12-07T07:34:13;99827.66;;;4.00;94.03
47883;BME280;37739;50.350;7.578;2022-12-07T07:36:40;99831.88;;;3.99;93.88
47883;BME280;37739;50.350;7.578;2022-12-07T07:39:05;99828.63;;;3.75;93.37
47883;BME280;37739;50.350;7.578;2022-12-07T07:41:33;99831.06;;;3.60;94.70
47883;BME280;37739;50.350;7.578;2022-12-07T07:43:58;99837.31;;;3.65;95.59
47883;BME280;37739;50.350;7.578;2022-12-07T07:46:26;99833.69;;;3.62;95.85
47883;BME280;37739;50.350;7.578;2022-12-07T07:48:51;99833.41;;;3.70;95.54
47883;BME280;37739;50.350;7.578;2022-12-07T07:51:17;99833.81;;;3.77;95.79
47883;BME280;37739;50.350;7.578;2022-12-07T07:53:42;99837.91;;;3.74;95.50
47883;BME280;37739;50.350;7.578;2022-12-07T07:56:10;99832.84;;;3.74;96.57
47883;BME280;37739;50.350;7.578;2022-12-07T07:58:35;99830.09;;;3.85;96.50
47883;BME280;37739;50.350;7.578;2022-12-07T08:01:06;99829.06;;;3.95;96.50
47883;BME280;37739;50.350;7.578;2022-12-07T08:03:31;99839.69;;;4.02;96.14
47883;BME280;37739;50.350;7.578;2022-12-07T08:05:57;99824.03;;;4.09;95.66
47883;BME280;37739;50.350;7.578;2022-12-07T08:08:22;99831.16;;;4.15;95.46
47883;BME280;37739;50.350;7.578;2022-12-07T08:10:54;99829.50;;;4.16;94.92
47883;BME280;37739;50.350;7.578;2022-12-07T08:13:22;99836.25;;;4.15;94.70
47883;BME280;37739;50.350;7.578;2022-12-07T08:15:48;99833.53;;;4.12;94.68
47883;BME280;37739;50.350;7.578;2022-12-07T08:18:16;99841.31;;;4.15;94.94
47883;BME280;37739;50.350;7.578;2022-12-07T08:20:42;99838.88;;;4.17;94.60
47883;BME280;37739;50.350;7.578;2022-12-07T08:23:10;99838.13;;;4.18;94.94
47883;BME280;37739;50.350;7.578;2022-12-07T08:25:36;99836.44;;;4.18;94.68
47883;BME280;37739;50.350;7.578;2022-12-07T08:28:02;99846.00;;;4.22;94.80
47883;BME280;37739;50.350;7.578;2022-12-07T08:30:28;99849.03;;;4.17;93.99
47883;BME280;37739;50.350;7.578;2022-12-07T08:32:59;99836.72;;;4.09;94.75
47883;BME280;37739;50.350;7.578;2022-12-07T08:35:24;99840.44;;;4.15;95.34
47883;BME280;37739;50.350;7.578;2022-12-07T08:37:50;99845.16;;;4.22;95.08
47883;BME280;37739;50.350;7.578;2022-12-07T08:40:17;99843.09;;;4.29;94.87
47883;BME280;37739;50.350;7.578;2022-12-07T08:42:49;99843.25;;;4.32;94.29
47883;BME280;37739;50.350;7.578;2022-12-07T08:45:15;99851.94;;;4.36;94.46
47883;BME280;37739;50.350;7.578;2022-12-07T08:50:15;99852.91;;;4.38;94.26
47883;BME280;37739;50.350;7.578;2022-12-07T08:52:43;99852.16;;;4.39;93.79
47883;BME280;37739;50.350;7.578;2022-12-07T08:55:11;99852.16;;;4.39;93.91
47883;BME280;37739;50.350;7.578;2022-12-07T08:57:37;99849.63;;;4.39;93.82
47883;BME280;37739;50.350;7.578;2022-12-07T09:00:04;99842.88;;;4.40;93.71
47883;BME280;37739;50.350;7.578;2022-12-07T09:02:31;99842.00;;;4.39;93.13
47883;BME280;37739;50.350;7.578;2022-12-07T09:04:56;99842.28;;;4.30;92.75
47883;BME280;37739;50.350;7.578;2022-12-07T09:07:22;99841.03;;;4.24;92.43
47883;BME280;37739;50.350;7.578;2022-12-07T09:09:47;99841.03;;;4.24;93.28
47883;BME280;37739;50.350;7.578;2022-12-07T09:12:15;99848.44;;;4.21;92.76
47883;BME280;37739;50.350;7.578;2022-12-07T09:14:43;99849.31;;;4.21;92.18
47883;BME280;37739;50.350;7.578;2022-12-07T09:17:14;99857.63;;;4.32;93.08
47883;BME280;37739;50.350;7.578;2022-12-07T09:19:42;99842.09;;;4.41;92.56
47883;BME280;37739;50.350;7.578;2022-12-07T09:22:08;99842.38;;;4.45;92.18
47883;BME280;37739;50.350;7.578;2022-12-07T09:24:34;99842.38;;;4.45;91.82
47883;BME280;37739;50.350;7.578;2022-12-07T09:26:59;99845.78;;;4.32;91.08
47883;BME280;37739;50.350;7.578;2022-12-07T09:29:25;99851.72;;;4.46;91.74
47883;BME280;37739;50.350;7.578;2022-12-07T09:31:53;99845.38;;;4.53;91.93
47883;BME280;37739;50.350;7.578;2022-12-07T09:34:23;99847.06;;;4.52;91.73
47883;BME280;37739;50.350;7.578;2022-12-07T09:36:50;99851.22;;;4.52;91.85
47883;BME280;37739;50.350;7.578;2022-12-07T09:39:18;99848.63;;;4.50;92.37
47883;BME280;37739;50.350;7.578;2022-12-07T09:41:46;99853.59;;;4.49;92.17
47883;BME280;37739;50.350;7.578;2022-12-07T09:44:20;99858.09;;;4.53;92.34
47883;BME280;37739;50.350;7.578;2022-12-07T09:46:46;99858.19;;;4.55;91.95
47883;BME280;37739;50.350;7.578;2022-12-07T09:49:18;99856.22;;;4.64;91.61
47883;BME280;37739;50.350;7.578;2022-12-07T09:51:44;99852.97;;;4.66;91.49
47883;BME280;37739;50.350;7.578;2022-12-07T09:54:13;99842.91;;;4.68;91.42
47883;BME280;37739;50.350;7.578;2022-12-07T09:56:43;99849.81;;;4.70;91.61
47883;BME280;37739;50.350;7.578;2022-12-07T09:59:14;99853.94;;;4.68;91.36
47883;BME280;37739;50.350;7.578;2022-12-07T10:01:41;99842.97;;;4.69;91.48
47883;BME280;37739;50.350;7.578;2022-12-07T10:04:14;99842.97;;;4.69;91.53
47883;BME280;37739;50.350;7.578;2022-12-07T10:06:41;99837.03;;;4.69;91.58
47883;BME280;37739;50.350;7.578;2022-12-07T10:09:15;99834.47;;;4.69;91.43
47883;BME280;37739;50.350;7.578;2022-12-07T10:12:10;99830.38;;;4.71;91.53
47883;BME280;37739;50.350;7.578;2022-12-07T10:14:39;99827.94;;;4.72;91.43
47883;BME280;37739;50.350;7.578;2022-12-07T10:23:00;99821.22;;;4.88;91.10
47883;BME280;37739;50.350;7.578;2022-12-07T10:25:37;99814.41;;;4.87;90.91
47883;BME280;37739;50.350;7.578;2022-12-07T10:28:17;99810.44;;;4.92;90.78
47883;BME280;37739;50.350;7.578;2022-12-07T10:30:56;99813.34;;;4.98;90.82
47883;BME280;37739;50.350;7.578;2022-12-07T10:35:58;99806.25;;;5.07;90.65
47883;BME280;37739;50.350;7.578;2022-12-07T10:38:27;99799.50;;;5.08;90.43
47883;BME280;37739;50.350;7.578;2022-12-07T10:41:06;99800.56;;;5.11;90.54
47883;BME280;37739;50.350;7.578;2022-12-07T10:43:34;99798.06;;;5.26;90.96
47883;BME280;37739;50.350;7.578;2022-12-07T10:51:54;99777.66;;;6.01;88.82
47883;BME280;37739;50.350;7.578;2022-12-07T10:57:07;99790.44;;;6.02;88.12
47883;BME280;37739;50.350;7.578;2022-12-07T11:05:39;99775.13;;;6.17;87.58
47883;BME280;37739;50.350;7.578;2022-12-07T11:11:14;99771.59;;;5.84;87.21
47883;BME280;37739;50.350;7.578;2022-12-07T11:14:25;99772.56;;;5.86;88.45
47883;BME280;37739;50.350;7.578;2022-12-07T11:17:03;99764.22;;;5.88;89.18
47883;BME280;37739;50.350;7.578;2022-12-07T11:25:20;99755.41;;;6.13;89.13
47883;BME280;37739;50.350;7.578;2022-12-07T11:30:45;99749.63;;;6.81;87.22
47883;BME280;37739;50.350;7.578;2022-12-07T11:38:49;99729.78;;;6.59;83.90
47883;BME280;37739;50.350;7.578;2022-12-07T11:41:23;99730.75;;;6.61;85.13
47883;BME280;37739;50.350;7.578;2022-12-07T11:43:58;99723.91;;;6.60;84.96
47883;BME280;37739;50.350;7.578;2022-12-07T11:46:29;99719.38;;;6.55;84.75
47883;BME280;37739;50.350;7.578;2022-12-07T11:49:09;99716.72;;;6.37;83.53
47883;BME280;37739;50.350;7.578;2022-12-07T11:51:38;99726.50;;;6.13;83.44
47883;BME280;37739;50.350;7.578;2022-12-07T11:54:14;99723.38;;;5.87;83.64
47883;BME280;37739;50.350;7.578;2022-12-07T11:56:43;99718.66;;;5.93;84.28
47883;BME280;37739;50.350;7.578;2022-12-07T11:59:17;99723.22;;;5.99;84.19
47883;BME280;37739;50.350;7.578;2022-12-07T12:01:56;99714.97;;;5.57;82.47
47883;BME280;37739;50.350;7.578;2022-12-07T12:04:27;99714.06;;;5.56;84.17
47883;BME280;37739;50.350;7.578;2022-12-07T12:06:54;99715.47;;;5.66;84.47
47883;BME280;37739;50.350;7.578;2022-12-07T12:09:30;99710.63;;;5.70;83.17
47883;BME280;37739;50.350;7.578;2022-12-07T12:17:50;99704.59;;;5.54;83.06
47883;BME280;37739;50.350;7.578;2022-12-07T12:20:32;99703.00;;;5.70;83.20
47883;BME280;37739;50.350;7.578;2022-12-07T12:23:07;99698.41;;;5.80;82.35
47883;BME280;37739;50.350;7.578;2022-12-07T12:25:42;99693.63;;;5.86;82.96
47883;BME280;37739;50.350;7.578;2022-12-07T12:28:24;99686.31;;;5.92;82.70
47883;BME280;37739;50.350;7.578;2022-12-07T12:36:50;99682.41;;;5.82;82.90
47883;BME280;37739;50.350;7.578;2022-12-07T12:39:18;99682.47;;;5.99;82.78
47883;BME280;37739;50.350;7.578;2022-12-07T12:59:32;99683.47;;;5.55;86.38
47883;BME280;37739;50.350;7.578;2022-12-07T13:02:34;99683.53;;;5.56;85.83
47883;BME280;37739;50.350;7.578;2022-12-07T13:05:16;99685.94;;;5.38;85.12
47883;BME280;37739;50.350;7.578;2022-12-07T13:10:33;99698.69;;;4.94;85.71
47883;BME280;37739;50.350;7.578;2022-12-07T13:13:29;99696.34;;;4.97;87.06
47883;BME280;37739;50.350;7.578;2022-12-07T13:18:44;99684.91;;;4.90;87.32
47883;BME280;37739;50.350;7.578;2022-12-07T13:26:35;99696.84;;;4.76;87.49
47883;BME280;37739;50.350;7.578;2022-12-07T13:34:40;99663.09;;;4.94;86.69
47883;BME280;37739;50.350;7.578;2022-12-07T13:37:23;99663.72;;;5.04;86.89
47883;BME280;37739;50.350;7.578;2022-12-07T13:40:12;99671.94;;;5.00;87.15
47883;BME280;37739;50.350;7.578;2022-12-07T13:42:43;99664.75;;;5.08;87.31
47883;BME280;37739;50.350;7.578;2022-12-07T13:45:32;99661.06;;;5.18;86.84
47883;BME280;37739;50.350;7.578;2022-12-07T13:48:30;99667.38;;;5.24;86.77
47883;BME280;37739;50.350;7.578;2022-12-07T13:50:58;99665.00;;;5.27;86.52
47883;BME280;37739;50.350;7.578;2022-12-07T13:53:26;99654.91;;;5.29;86.51
47883;BME280;37739;50.350;7.578;2022-12-07T13:56:01;99660.06;;;5.30;86.44
47883;BME280;37739;50.350;7.578;2022-12-07T13:58:30;99661.66;;;5.28;86.87
47883;BME280;37739;50.350;7.578;2022-12-07T14:00:57;99661.56;;;5.27;87.16
47883;BME280;37739;50.350;7.578;2022-12-07T14:03:27;99661.56;;;5.27;87.21
47883;BME280;37739;50.350;7.578;2022-12-07T14:06:07;99654.75;;;5.26;86.95
47883;BME280;37739;50.350;7.578;2022-12-07T14:08:32;99646.25;;;5.25;87.19
47883;BME280;37739;50.350;7.578;2022-12-07T14:10:59;99648.78;;;5.25;87.15
47883;BME280;37739;50.350;7.578;2022-12-07T14:13:37;99650.34;;;5.23;87.05
47883;BME280;37739;50.350;7.578;2022-12-07T14:18:53;99649.13;;;5.17;87.34
47883;BME280;37739;50.350;7.578;2022-12-07T14:21:22;99650.63;;;5.13;87.30
47883;BME280;37739;50.350;7.578;2022-12-07T14:24:15;99647.31;;;5.14;87.04
47883;BME280;37739;50.350;7.578;2022-12-07T14:26:43;99647.38;;;5.16;86.90
47883;BME280;37739;50.350;7.578;2022-12-07T14:31:52;99645.53;;;5.13;86.69
47883;BME280;37739;50.350;7.578;2022-12-07T14:34:22;99644.41;;;5.08;86.58
47883;BME280;37739;50.350;7.578;2022-12-07T14:36:48;99643.44;;;5.06;86.38
47883;BME280;37739;50.350;7.578;2022-12-07T14:39:13;99645.22;;;5.07;86.59
47883;BME280;37739;50.350;7.578;2022-12-07T14:41:41;99643.28;;;5.03;86.34
47883;BME280;37739;50.350;7.578;2022-12-07T14:44:27;99643.38;;;5.04;85.84
47883;BME280;37739;50.350;7.578;2022-12-07T14:46:53;99640.91;;;5.06;86.01
47883;BME280;37739;50.350;7.578;2022-12-07T14:49:19;99638.53;;;5.09;85.88
47883;BME280;37739;50.350;7.578;2022-12-07T14:51:49;99638.97;;;5.02;84.81
47883;BME280;37739;50.350;7.578;2022-12-07T14:54:19;99634.50;;;4.98;85.92
47883;BME280;37739;50.350;7.578;2022-12-07T14:56:45;99641.69;;;5.05;86.35
47883;BME280;37739;50.350;7.578;2022-12-07T14:59:14;99635.28;;;5.11;85.83
47883;BME280;37739;50.350;7.578;2022-12-07T15:01:39;99633.88;;;5.17;85.52
47883;BME280;37739;50.350;7.578;2022-12-07T15:04:06;99638.53;;;5.09;85.24
47883;BME280;37739;50.350;7.578;2022-12-07T15:06:32;99637.75;;;5.10;85.67
47883;BME280;37739;50.350;7.578;2022-12-07T15:08:57;99639.69;;;4.99;84.55
47883;BME280;37739;50.350;7.578;2022-12-07T15:11:23;99644.00;;;4.85;85.79
47883;BME280;37739;50.350;7.578;2022-12-07T15:13:48;99643.53;;;4.92;85.65
47883;BME280;37739;50.350;7.578;2022-12-07T15:16:32;99638.53;;;4.94;85.49
47883;BME280;37739;50.350;7.578;2022-12-07T15:19:00;99638.28;;;4.89;84.65
47883;BME280;37739;50.350;7.578;2022-12-07T15:21:25;99630.56;;;4.88;84.77
47883;BME280;37739;50.350;7.578;2022-12-07T15:23:53;99632.25;;;4.87;85.11
47883;BME280;37739;50.350;7.578;2022-12-07T15:26:20;99628.84;;;4.87;85.41
47883;BME280;37739;50.350;7.578;2022-12-07T15:28:46;99630.47;;;4.86;85.21
47883;BME280;37739;50.350;7.578;2022-12-07T15:31:15;99630.47;;;4.86;85.04
47883;BME280;37739;50.350;7.578;2022-12-07T15:33:41;99629.53;;;4.84;85.29
47883;BME280;37739;50.350;7.578;2022-12-07T15:36:07;99623.56;;;4.84;85.39
47883;BME280;37739;50.350;7.578;2022-12-07T15:38:33;99623.38;;;4.81;85.43